createdAt,value
2019-02-10T00:02:02.327Z,8.60
2019-02-10T00:05:46.954Z,8.60
2019-02-10T00:09:31.567Z,8.60
2019-02-10T00:13:35.981Z,8.60
2019-02-10T00:17:20.962Z,8.60
2019-02-10T00:21:05.603Z,8.60
2019-02-10T00:24:50.209Z,8.50
2019-02-10T00:28:34.809Z,8.50
2019-02-10T00:32:19.495Z,8.50
2019-02-10T00:35:57.356Z,8.50
2019-02-10T00:39:41.972Z,8.60
2019-02-10T00:43:27.009Z,8.50
2019-02-10T00:47:11.661Z,8.60
2019-02-10T00:50:56.575Z,8.60
2019-02-10T00:54:41.282Z,8.60
2019-02-10T00:58:25.903Z,8.60
2019-02-10T01:02:10.574Z,8.70
2019-02-10T01:05:55.276Z,8.60
2019-02-10T01:09:39.903Z,8.60
2019-02-10T01:13:24.639Z,8.60
2019-02-10T01:17:09.321Z,8.60
2019-02-10T01:20:53.967Z,8.50
2019-02-10T01:24:38.591Z,8.50
2019-02-10T01:28:23.574Z,8.50
2019-02-10T01:32:08.249Z,8.50
2019-02-10T01:35:45.545Z,8.50
2019-02-10T01:39:30.171Z,8.50
2019-02-10T01:43:14.822Z,8.30
2019-02-10T01:46:59.448Z,8.30
2019-02-10T01:50:44.052Z,8.20
2019-02-10T01:54:29.025Z,8.10
2019-02-10T01:58:13.646Z,8.00
2019-02-10T02:01:58.285Z,7.80
2019-02-10T02:09:38.877Z,7.60
2019-02-10T02:13:23.464Z,7.50
2019-02-10T02:17:08.411Z,7.40
2019-02-10T02:20:53.046Z,7.40
2019-02-10T02:24:37.677Z,7.40
2019-02-10T02:28:22.286Z,7.40
2019-02-10T02:32:06.895Z,7.40
2019-02-10T02:35:43.701Z,7.40
2019-02-10T02:39:28.350Z,7.30
2019-02-10T02:43:13.012Z,7.40
2019-02-10T02:46:57.957Z,7.30
2019-02-10T02:50:42.585Z,7.20
2019-02-10T02:54:27.186Z,7.20
2019-02-10T03:02:22.253Z,7.00
2019-02-10T03:06:06.900Z,6.90
2019-02-10T03:09:51.508Z,6.90
2019-02-10T03:13:36.141Z,6.80
2019-02-10T03:17:20.762Z,6.80
2019-02-10T03:21:05.379Z,6.80
2019-02-10T03:24:50.062Z,6.70
2019-02-10T03:28:34.699Z,6.70
2019-02-10T03:32:19.326Z,6.70
2019-02-10T03:35:56.712Z,6.70
2019-02-10T03:43:31.672Z,6.80
2019-02-10T03:47:16.243Z,6.80
2019-02-10T03:51:00.864Z,6.90
2019-02-10T03:54:45.461Z,6.90
2019-02-10T03:58:30.080Z,7.00
2019-02-10T04:02:14.697Z,7.00
2019-02-10T04:05:59.306Z,7.00
2019-02-10T04:09:43.924Z,7.00
2019-02-10T04:13:28.879Z,7.00
2019-02-10T04:24:54.249Z,6.90
2019-02-10T04:28:39.203Z,6.90
2019-02-10T04:32:23.806Z,6.90
2019-02-10T04:36:01.147Z,6.90
2019-02-10T04:43:35.571Z,6.90
2019-02-10T04:47:20.566Z,6.90
2019-02-10T04:51:05.182Z,6.90
2019-02-10T04:54:49.807Z,6.90
2019-02-10T05:02:37.963Z,6.80
2019-02-10T05:06:22.509Z,6.80
2019-02-10T05:13:58.010Z,6.80
2019-02-10T05:21:32.382Z,6.80
2019-02-10T05:29:01.508Z,6.90
2019-02-10T05:32:46.101Z,6.90
2019-02-10T05:36:23.026Z,6.90
2019-02-10T05:40:07.634Z,6.90
2019-02-10T05:43:52.594Z,6.90
2019-02-10T05:47:37.221Z,7.00
2019-02-10T05:51:21.813Z,7.00
2019-02-10T05:58:57.194Z,7.00
2019-02-10T06:02:42.053Z,7.00
2019-02-10T06:06:26.655Z,7.00
2019-02-10T06:10:11.637Z,6.90
2019-02-10T06:13:56.234Z,7.00
2019-02-10T06:17:40.847Z,7.00
2019-02-10T06:21:25.457Z,7.00
2019-02-10T06:29:00.608Z,7.00
2019-02-10T06:32:45.203Z,7.10
2019-02-10T06:36:22.222Z,7.10
2019-02-10T06:40:08.445Z,7.20
2019-02-10T06:43:53.098Z,7.20
2019-02-10T06:47:37.685Z,7.30
2019-02-10T06:51:22.500Z,7.30
2019-02-10T07:03:31.814Z,7.60
2019-02-10T07:07:16.421Z,7.60
2019-02-10T07:11:01.033Z,7.70
2019-02-10T07:14:45.625Z,7.80
2019-02-10T07:19:08.392Z,7.80
2019-02-10T07:26:55.328Z,7.80
2019-02-10T07:30:49.606Z,7.70
2019-02-10T07:34:52.132Z,7.70
2019-02-10T07:38:59.396Z,7.70
2019-02-10T07:43:22.129Z,7.70
2019-02-10T07:52:10.683Z,7.80
2019-02-10T07:56:33.453Z,7.90
2019-02-10T08:00:56.191Z,7.90
2019-02-10T08:05:19.226Z,7.90
2019-02-10T08:09:35.297Z,8.10
2019-02-10T08:13:33.241Z,8.10
2019-02-10T08:17:59.065Z,8.30
2019-02-10T08:22:06.087Z,8.60
2019-02-10T08:26:28.897Z,8.70
2019-02-10T08:30:51.676Z,8.90
2019-02-10T08:34:53.752Z,8.90
2019-02-10T08:39:00.534Z,8.90
2019-02-10T08:43:23.345Z,9.00
2019-02-10T08:47:46.100Z,9.00
2019-02-10T08:52:08.901Z,9.10
2019-02-10T08:55:53.569Z,9.20
2019-02-10T08:59:38.431Z,9.40
2019-02-10T09:03:23.131Z,9.50
2019-02-10T09:10:38.715Z,9.90
2019-02-10T09:14:23.337Z,9.90
2019-02-10T09:18:07.953Z,9.90
2019-02-10T09:25:42.844Z,10.00
2019-02-10T09:29:27.459Z,10.00
2019-02-10T09:33:12.187Z,9.90
2019-02-10T09:36:49.555Z,9.80
2019-02-10T09:40:34.599Z,9.60
2019-02-10T09:44:19.231Z,9.40
2019-02-10T09:47:44.786Z,9.30
2019-02-10T09:51:29.530Z,9.30
2019-02-10T09:59:04.502Z,9.20
2019-02-10T10:02:49.432Z,9.10
2019-02-10T10:06:34.047Z,9.10
2019-02-10T10:10:18.666Z,9.10
2019-02-10T10:14:03.324Z,9.10
2019-02-10T10:21:51.493Z,9.00
2019-02-10T10:25:36.114Z,9.10
2019-02-10T10:29:20.708Z,9.10
2019-02-10T10:33:05.383Z,9.10
2019-02-10T10:36:42.741Z,9.00
2019-02-10T10:40:27.383Z,9.00
2019-02-10T10:44:11.962Z,9.00
2019-02-10T10:47:56.597Z,9.00
2019-02-10T10:51:41.562Z,9.00
2019-02-10T10:55:26.189Z,9.00
2019-02-10T10:59:10.768Z,9.00
2019-02-10T11:02:55.763Z,9.10
2019-02-10T11:06:40.517Z,9.20
2019-02-10T11:10:25.194Z,9.20
2019-02-10T11:14:28.627Z,9.30
2019-02-10T11:18:13.262Z,9.30
2019-02-10T11:21:58.128Z,9.30
2019-02-10T11:25:42.750Z,9.30
2019-02-10T11:29:27.299Z,9.40
2019-02-10T11:33:11.921Z,9.40
2019-02-10T11:36:48.890Z,9.30
2019-02-10T11:44:36.993Z,9.30
2019-02-10T11:48:21.631Z,9.20
2019-02-10T11:52:06.257Z,9.20
2019-02-10T11:55:50.878Z,9.10
2019-02-10T11:59:35.519Z,9.10
2019-02-10T12:03:20.498Z,9.00
2019-02-10T12:07:05.117Z,9.00
2019-02-10T12:10:49.731Z,8.90
2019-02-10T12:14:34.340Z,8.80
2019-02-10T12:22:22.767Z,8.70
2019-02-10T12:25:59.699Z,8.60
2019-02-10T12:29:44.285Z,8.50
2019-02-10T12:33:29.193Z,8.40
2019-02-10T12:37:13.799Z,8.30
2019-02-10T12:40:58.734Z,8.30
2019-02-10T12:44:43.301Z,8.30
2019-02-10T12:52:18.773Z,8.10
2019-02-10T12:56:03.389Z,8.10
2019-02-10T12:59:48.195Z,8.10
2019-02-10T13:07:03.701Z,8.20
2019-02-10T13:10:48.314Z,8.30
2019-02-10T13:14:33.036Z,8.30
2019-02-10T13:22:21.161Z,8.40
2019-02-10T13:26:01.698Z,8.50
2019-02-10T13:29:46.350Z,8.50
2019-02-10T13:33:30.975Z,8.70
2019-02-10T13:37:15.642Z,8.80
2019-02-10T13:41:00.243Z,8.80
2019-02-10T13:44:44.862Z,8.70
2019-02-10T13:48:29.476Z,8.80
2019-02-10T13:52:14.063Z,8.90
2019-02-10T13:55:58.701Z,8.90
2019-02-10T14:07:03.931Z,8.80
2019-02-10T14:10:48.662Z,8.90
2019-02-10T14:14:33.312Z,8.90
2019-02-10T14:18:18.079Z,8.90
2019-02-10T14:22:02.752Z,8.80
2019-02-10T14:25:40.001Z,8.60
2019-02-10T14:29:24.730Z,8.60
2019-02-10T14:33:09.404Z,8.60
2019-02-10T14:36:54.038Z,8.60
2019-02-10T14:40:38.659Z,8.70
2019-02-10T14:48:07.557Z,8.60
2019-02-10T14:51:52.186Z,8.50
2019-02-10T14:55:36.800Z,8.20
2019-02-10T14:59:40.888Z,8.10
2019-02-10T15:03:25.521Z,8.00
2019-02-10T15:10:47.022Z,7.80
2019-02-10T15:14:31.639Z,7.80
2019-02-10T15:22:52.156Z,7.60
2019-02-10T15:26:36.765Z,7.50
2019-02-10T15:30:21.873Z,7.50
2019-02-10T15:34:06.463Z,7.50
2019-02-10T15:37:51.151Z,7.40
2019-02-10T15:41:35.749Z,7.50
2019-02-10T15:45:20.404Z,7.50
2019-02-10T15:49:05.141Z,7.50
2019-02-10T15:53:08.608Z,7.50
2019-02-10T15:56:53.177Z,7.50
2019-02-10T16:00:37.861Z,7.50
2019-02-10T16:04:22.518Z,7.40
2019-02-10T16:08:07.410Z,7.30
2019-02-10T16:11:44.370Z,7.30
2019-02-10T16:15:29.009Z,7.20
2019-02-10T16:19:13.646Z,7.00
2019-02-10T16:22:58.529Z,6.90
2019-02-10T16:26:43.507Z,6.80
2019-02-10T16:34:18.700Z,6.70
2019-02-10T16:38:03.747Z,6.70
2019-02-10T16:41:48.386Z,6.70
2019-02-10T16:45:32.965Z,6.60
2019-02-10T16:49:17.636Z,6.60
2019-02-10T16:53:02.535Z,6.50
2019-02-10T16:56:47.141Z,6.50
2019-02-10T17:00:31.837Z,6.50
2019-02-10T17:04:16.499Z,6.50
2019-02-10T17:08:01.169Z,6.40
2019-02-10T17:15:34.968Z,6.40
2019-02-10T17:23:04.053Z,6.30
2019-02-10T17:26:48.814Z,6.30
2019-02-10T17:30:33.452Z,6.20
2019-02-10T17:34:18.081Z,6.20
2019-02-10T17:38:02.797Z,6.20
2019-02-10T17:41:48.722Z,6.10
2019-02-10T17:45:33.373Z,6.10
2019-02-10T17:49:18.048Z,6.10
2019-02-10T17:53:03.133Z,6.00
2019-02-10T17:56:47.750Z,6.00
2019-02-10T18:04:41.405Z,5.90
2019-02-10T18:08:45.613Z,5.90
2019-02-10T18:12:23.436Z,5.90
2019-02-10T18:16:26.986Z,5.90
2019-02-10T18:20:11.542Z,5.90
2019-02-10T18:24:15.034Z,5.90
2019-02-10T18:28:18.546Z,5.90
2019-02-10T18:32:42.603Z,5.80
2019-02-10T18:40:30.626Z,5.70
2019-02-10T18:44:34.151Z,5.60
2019-02-10T18:48:37.857Z,5.60
2019-02-10T18:52:28.175Z,5.60
2019-02-10T18:56:31.653Z,5.50
2019-02-10T19:00:35.434Z,5.40
2019-02-10T19:04:38.869Z,5.30
2019-02-10T19:08:42.930Z,5.20
2019-02-10T19:12:37.311Z,5.10
2019-02-10T19:16:32.694Z,5.00
2019-02-10T19:20:35.868Z,4.90
2019-02-10T19:24:20.723Z,4.90
2019-02-10T19:28:24.349Z,4.80
2019-02-10T19:32:08.824Z,4.80
2019-02-10T19:36:12.646Z,4.70
2019-02-10T19:39:57.159Z,4.60
2019-02-10T19:44:00.696Z,4.60
2019-02-10T19:48:04.174Z,4.60
2019-02-10T19:52:07.645Z,4.60
2019-02-10T19:56:11.152Z,4.50
2019-02-10T20:00:14.709Z,4.40
2019-02-10T20:04:18.258Z,4.40
2019-02-10T20:08:14.431Z,4.40
2019-02-10T20:12:13.517Z,4.40
2019-02-10T20:20:20.442Z,4.30
2019-02-10T20:24:14.474Z,4.20
2019-02-10T20:28:18.000Z,4.20
2019-02-10T20:32:21.529Z,4.20
2019-02-10T20:36:12.735Z,4.10
2019-02-10T20:40:16.272Z,4.10
2019-02-10T20:44:17.736Z,4.10
2019-02-10T20:48:05.228Z,4.10
2019-02-10T20:52:05.451Z,4.10
2019-02-10T20:56:09.146Z,4.00
2019-02-10T21:00:12.731Z,3.90
2019-02-10T21:04:16.239Z,3.90
2019-02-10T21:08:20.024Z,3.80
2019-02-10T21:12:23.663Z,3.80
2019-02-10T21:16:27.212Z,3.80
2019-02-10T21:20:24.653Z,3.60
2019-02-10T21:24:28.626Z,3.50
2019-02-10T21:28:32.123Z,3.40
2019-02-10T21:32:35.691Z,3.30
2019-02-10T21:36:39.335Z,3.20
2019-02-10T21:40:42.896Z,3.10
2019-02-10T21:44:33.045Z,2.90
2019-02-10T21:48:36.715Z,2.90
2019-02-10T21:52:14.873Z,3.00
2019-02-10T21:55:59.682Z,2.90
2019-02-10T21:59:45.297Z,2.90
2019-02-10T22:03:30.290Z,2.80
2019-02-10T22:07:15.137Z,2.80
2019-02-10T22:10:59.882Z,2.90
2019-02-10T22:14:44.745Z,2.90
2019-02-10T22:18:29.796Z,2.90
2019-02-10T22:22:14.613Z,2.90
2019-02-10T22:26:00.179Z,2.90
2019-02-10T22:29:44.938Z,2.90
2019-02-10T22:33:29.816Z,2.90
2019-02-10T22:37:33.959Z,3.00
2019-02-10T22:41:18.808Z,3.00
2019-02-10T22:45:03.559Z,3.10
2019-02-10T22:48:48.263Z,3.20
2019-02-10T22:52:25.311Z,3.30
2019-02-10T22:56:09.995Z,3.30
2019-02-10T22:59:54.697Z,3.40
2019-02-10T23:03:39.419Z,3.40
2019-02-10T23:07:24.258Z,3.50
2019-02-10T23:11:09.443Z,3.50
2019-02-10T23:14:54.132Z,3.60
2019-02-10T23:18:38.884Z,3.60
2019-02-10T23:22:23.577Z,3.60
2019-02-10T23:26:08.830Z,3.60
2019-02-10T23:29:53.509Z,3.70
2019-02-10T23:33:38.164Z,3.70
2019-02-10T23:37:22.924Z,3.70
2019-02-10T23:41:08.086Z,3.70
2019-02-10T23:44:52.879Z,3.70
2019-02-10T23:48:37.528Z,3.80
2019-02-10T23:52:14.433Z,3.80
2019-02-10T23:55:59.124Z,3.80
2019-02-10T23:59:43.844Z,3.80
